createdAt,value
2019-03-26T00:00:23.282Z,5.86
2019-03-26T00:05:29.134Z,5.84
2019-03-26T00:10:34.744Z,5.84
2019-03-26T00:15:40.261Z,5.89
2019-03-26T00:20:45.765Z,5.95
2019-03-26T00:25:51.733Z,5.95
2019-03-26T00:30:57.222Z,6.01
2019-03-26T00:36:03.161Z,6.00
2019-03-26T00:41:08.704Z,5.96
2019-03-26T00:46:14.272Z,5.92
2019-03-26T00:51:19.868Z,5.86
2019-03-26T00:56:25.394Z,5.79
2019-03-26T01:01:31.124Z,5.77
2019-03-26T01:06:36.862Z,5.78
2019-03-26T01:11:42.353Z,5.79
2019-03-26T01:16:47.870Z,5.84
2019-03-26T01:21:54.402Z,5.84
2019-03-26T01:27:00.122Z,5.85
2019-03-26T01:32:05.865Z,5.84
2019-03-26T01:37:11.398Z,5.85
2019-03-26T01:42:16.929Z,5.85
2019-03-26T01:47:22.587Z,5.82
2019-03-26T01:52:28.382Z,5.82
2019-03-26T01:57:33.849Z,5.78
2019-03-26T02:02:39.464Z,5.75
2019-03-26T02:07:44.980Z,5.72
2019-03-26T02:12:50.714Z,5.73
2019-03-26T02:17:56.324Z,5.69
2019-03-26T02:23:01.889Z,5.68
2019-03-26T02:28:07.456Z,5.70
2019-03-26T02:33:13.045Z,5.68
2019-03-26T02:38:18.581Z,5.67
2019-03-26T02:43:24.296Z,5.72
2019-03-26T02:48:29.822Z,5.71
2019-03-26T02:53:36.605Z,5.71
2019-03-26T02:58:42.342Z,5.72
2019-03-26T03:03:47.869Z,5.69
2019-03-26T03:08:53.403Z,5.71
2019-03-26T03:14:00.135Z,5.70
2019-03-26T03:19:05.703Z,5.66
2019-03-26T03:24:14.166Z,5.63
2019-03-26T03:29:18.723Z,5.56
2019-03-26T03:34:24.785Z,5.53
2019-03-26T03:39:30.160Z,5.44
2019-03-26T03:44:35.724Z,5.40
2019-03-26T03:49:41.646Z,5.35
2019-03-26T03:54:47.718Z,5.28
2019-03-26T03:59:53.582Z,5.22
2019-03-26T04:04:59.033Z,5.18
2019-03-26T04:10:04.961Z,5.17
2019-03-26T04:15:10.409Z,5.06
2019-03-26T04:20:15.936Z,4.92
2019-03-26T04:25:21.382Z,4.87
2019-03-26T04:30:31.532Z,4.79
2019-03-26T04:35:37.076Z,4.84
2019-03-26T04:40:42.996Z,4.76
2019-03-26T04:45:48.589Z,4.71
2019-03-26T04:50:54.562Z,4.68
2019-03-26T04:56:00.112Z,4.70
2019-03-26T05:01:05.660Z,4.61
2019-03-26T05:06:11.190Z,4.61
2019-03-26T05:11:16.682Z,4.56
2019-03-26T05:16:22.219Z,4.59
2019-03-26T05:21:27.720Z,4.57
2019-03-26T05:26:33.267Z,4.61
2019-03-26T05:31:39.343Z,4.60
2019-03-26T05:36:51.180Z,4.62
2019-03-26T05:41:52.620Z,4.69
2019-03-26T05:47:01.453Z,4.83
2019-03-26T05:52:05.812Z,4.97
2019-03-26T05:57:11.436Z,5.01
2019-03-26T06:02:18.101Z,5.07
2019-03-26T06:07:23.914Z,5.17
2019-03-26T06:12:32.103Z,5.20
2019-03-26T06:17:37.867Z,5.28
2019-03-26T06:22:43.432Z,5.25
2019-03-26T06:27:49.046Z,5.28
2019-03-26T06:32:54.662Z,5.27
2019-03-26T06:38:00.177Z,5.29
2019-03-26T06:43:05.793Z,5.27
2019-03-26T06:48:11.536Z,5.27
2019-03-26T06:53:17.063Z,5.19
2019-03-26T06:58:22.701Z,5.11
2019-03-26T07:03:28.272Z,5.16
2019-03-26T07:08:34.999Z,5.11
2019-03-26T07:13:40.617Z,5.13
2019-03-26T07:18:46.177Z,5.18
2019-03-26T07:23:52.135Z,5.25
2019-03-26T07:28:58.244Z,5.33
2019-03-26T07:34:07.021Z,5.44
2019-03-26T07:39:11.070Z,5.52
2019-03-26T07:44:16.661Z,5.63
2019-03-26T07:49:24.227Z,5.71
2019-03-26T07:54:32.630Z,5.72
2019-03-26T07:59:37.534Z,5.72
2019-03-26T08:04:43.295Z,5.70
2019-03-26T08:09:50.612Z,5.75
2019-03-26T08:14:59.415Z,5.70
2019-03-26T08:20:05.374Z,5.75
2019-03-26T08:25:11.630Z,5.91
2019-03-26T08:30:17.361Z,6.06
2019-03-26T08:35:23.084Z,6.04
2019-03-26T08:40:29.030Z,6.17
2019-03-26T08:45:35.866Z,6.20
2019-03-26T08:50:41.564Z,6.38
2019-03-26T08:55:47.070Z,6.44
2019-03-26T09:00:52.834Z,6.50
2019-03-26T09:05:58.632Z,6.73
2019-03-26T09:11:04.516Z,6.97
2019-03-26T09:16:10.031Z,6.94
2019-03-26T09:21:15.796Z,6.97
2019-03-26T09:26:21.496Z,6.84
2019-03-26T09:31:27.568Z,6.81
2019-03-26T09:36:34.319Z,6.83
2019-03-26T09:41:40.060Z,6.85
2019-03-26T09:46:45.685Z,6.79
2019-03-26T09:51:51.276Z,6.93
2019-03-26T09:56:57.716Z,7.42
2019-03-26T10:02:03.251Z,8.00
2019-03-26T10:07:20.759Z,8.12
2019-03-26T10:12:18.036Z,7.96
2019-03-26T10:17:25.756Z,7.94
2019-03-26T10:22:31.402Z,7.92
2019-03-26T10:27:36.961Z,7.64
2019-03-26T10:32:43.586Z,7.50
2019-03-26T10:37:49.418Z,7.54
2019-03-26T10:42:59.084Z,7.88
2019-03-26T10:48:04.978Z,9.16
2019-03-26T10:53:10.956Z,9.81
2019-03-26T10:58:17.715Z,9.45
2019-03-26T11:03:23.363Z,8.89
2019-03-26T11:08:29.043Z,8.35
2019-03-26T11:13:34.984Z,8.16
2019-03-26T11:18:40.690Z,7.91
2019-03-26T11:23:46.340Z,7.97
2019-03-26T11:28:51.938Z,7.79
2019-03-26T11:33:57.770Z,7.72
2019-03-26T11:39:05.094Z,7.87
2019-03-26T11:44:11.188Z,8.39
2019-03-26T11:49:17.820Z,8.51
2019-03-26T11:54:23.896Z,8.64
2019-03-26T11:59:30.048Z,8.73
2019-03-26T12:04:36.176Z,8.80
2019-03-26T12:09:46.539Z,9.45
2019-03-26T12:15:04.736Z,10.01
2019-03-26T12:20:10.631Z,9.38
2019-03-26T12:25:16.336Z,8.98
2019-03-26T12:30:38.301Z,8.76
2019-03-26T12:35:44.072Z,8.61
2019-03-26T12:40:50.448Z,8.68
2019-03-26T12:45:56.352Z,8.57
2019-03-26T12:51:03.030Z,8.47
2019-03-26T12:56:08.850Z,8.48
2019-03-26T13:01:14.572Z,8.56
2019-03-26T13:06:20.148Z,8.46
2019-03-26T13:11:26.151Z,8.47
2019-03-26T13:16:31.784Z,8.53
2019-03-26T13:21:37.726Z,8.58
2019-03-26T13:26:44.546Z,8.61
2019-03-26T13:31:50.096Z,8.76
2019-03-26T13:36:55.871Z,8.77
2019-03-26T13:42:01.744Z,9.03
2019-03-26T13:47:12.391Z,9.23
2019-03-26T13:52:17.953Z,9.71
2019-03-26T13:57:23.742Z,9.83
2019-03-26T14:02:29.322Z,9.80
2019-03-26T14:07:35.010Z,9.78
2019-03-26T14:12:40.644Z,10.95
2019-03-26T14:17:46.286Z,12.16
2019-03-26T14:22:51.840Z,11.94
2019-03-26T14:27:57.496Z,12.26
2019-03-26T14:33:03.058Z,12.13
2019-03-26T14:38:08.852Z,11.31
2019-03-26T14:43:14.417Z,10.43
2019-03-26T14:48:20.139Z,9.99
2019-03-26T14:53:25.736Z,9.75
2019-03-26T14:58:33.448Z,9.50
2019-03-26T15:03:39.217Z,9.37
2019-03-26T15:08:44.937Z,9.28
2019-03-26T15:13:50.841Z,9.16
2019-03-26T15:18:56.414Z,9.09
2019-03-26T15:24:01.921Z,9.08
2019-03-26T15:29:08.658Z,9.02
2019-03-26T15:34:19.280Z,8.96
2019-03-26T15:39:25.552Z,8.85
2019-03-26T15:44:31.316Z,8.80
2019-03-26T15:49:37.000Z,8.71
2019-03-26T15:54:42.894Z,8.73
2019-03-26T15:59:48.643Z,8.69
2019-03-26T16:04:54.600Z,8.61
2019-03-26T16:10:00.468Z,8.51
2019-03-26T16:15:06.986Z,8.51
2019-03-26T16:20:12.738Z,8.45
2019-03-26T16:25:18.600Z,8.45
2019-03-26T16:30:24.292Z,8.32
2019-03-26T16:35:29.942Z,8.28
2019-03-26T16:40:35.597Z,8.30
2019-03-26T16:45:41.136Z,8.25
2019-03-26T16:50:46.787Z,8.31
2019-03-26T16:55:52.435Z,8.30
2019-03-26T17:00:58.230Z,8.21
2019-03-26T17:06:04.251Z,8.02
2019-03-26T17:11:09.946Z,7.87
2019-03-26T17:16:15.617Z,7.74
2019-03-26T17:21:21.233Z,7.60
2019-03-26T17:26:26.938Z,7.48
2019-03-26T17:31:32.748Z,7.53
2019-03-26T17:36:38.674Z,7.49
2019-03-26T17:41:44.412Z,7.54
2019-03-26T17:46:50.116Z,7.54
2019-03-26T17:51:55.919Z,7.60
2019-03-26T17:57:02.292Z,7.60
2019-03-26T18:02:07.935Z,7.55
2019-03-26T18:07:13.568Z,7.60
2019-03-26T18:12:30.126Z,7.58
2019-03-26T18:17:26.820Z,7.57
2019-03-26T18:22:32.936Z,7.66
2019-03-26T18:27:38.392Z,7.71
2019-03-26T18:32:44.044Z,7.75
2019-03-26T18:37:49.926Z,7.76
2019-03-26T18:42:55.572Z,7.83
2019-03-26T18:48:02.548Z,7.80
2019-03-26T18:53:09.319Z,7.77
2019-03-26T18:58:15.038Z,7.76
2019-03-26T19:03:21.711Z,7.70
2019-03-26T19:08:27.257Z,7.71
2019-03-26T19:13:33.127Z,7.76
2019-03-26T19:18:38.714Z,7.69
2019-03-26T19:23:45.506Z,7.66
2019-03-26T19:28:56.562Z,7.63
2019-03-26T19:34:02.268Z,7.62
2019-03-26T19:39:08.791Z,7.67
2019-03-26T19:44:14.922Z,7.63
2019-03-26T19:49:20.518Z,7.71
2019-03-26T19:54:26.212Z,7.64
2019-03-26T19:59:31.964Z,7.62
2019-03-26T20:04:37.541Z,7.63
2019-03-26T20:09:43.120Z,7.64
2019-03-26T20:14:52.074Z,7.61
2019-03-26T20:19:57.967Z,7.64
2019-03-26T20:25:03.680Z,7.65
2019-03-26T20:30:09.893Z,7.58
2019-03-26T20:35:16.103Z,7.68
2019-03-26T20:40:21.970Z,7.85
2019-03-26T20:45:27.783Z,7.82
2019-03-26T20:50:33.251Z,7.75
2019-03-26T20:55:39.002Z,7.71
2019-03-26T21:00:44.628Z,7.72
2019-03-26T21:05:50.584Z,7.72
2019-03-26T21:10:56.119Z,7.68
2019-03-26T21:16:01.789Z,7.68
2019-03-26T21:21:07.349Z,7.63
2019-03-26T21:26:13.290Z,7.60
2019-03-26T21:31:19.450Z,7.66
2019-03-26T21:36:26.911Z,7.63
2019-03-26T21:41:32.624Z,7.62
2019-03-26T21:46:38.505Z,7.62
2019-03-26T21:51:44.547Z,7.59
2019-03-26T21:56:50.178Z,7.58
2019-03-26T22:01:55.885Z,7.57
2019-03-26T22:07:01.635Z,7.53
2019-03-26T22:12:07.402Z,7.53
2019-03-26T22:17:13.126Z,7.51
2019-03-26T22:22:18.655Z,7.50
2019-03-26T22:27:24.523Z,7.51
2019-03-26T22:32:30.027Z,7.45
2019-03-26T22:37:35.681Z,7.37
2019-03-26T22:42:41.769Z,7.36
2019-03-26T22:47:47.289Z,7.35
2019-03-26T22:52:52.883Z,7.34
2019-03-26T22:57:58.632Z,7.31
2019-03-26T23:03:04.782Z,7.28
2019-03-26T23:08:10.352Z,7.29
2019-03-26T23:13:16.151Z,7.29
2019-03-26T23:18:21.899Z,7.29
2019-03-26T23:23:27.871Z,7.23
2019-03-26T23:28:34.123Z,7.19
2019-03-26T23:33:39.735Z,7.18
2019-03-26T23:38:45.419Z,7.13
2019-03-26T23:43:50.993Z,7.08
2019-03-26T23:48:56.624Z,7.05
2019-03-26T23:54:03.348Z,7.06
2019-03-26T23:59:08.839Z,7.06
